Date,TemperatureHighF,TemperatureAvgF,TemperatureLowF,DewpointHighF,DewpointAvgF,DewpointLowF,HumidityHigh,HumidityAvg,HumidityLow,PressureMaxIn,PressureMinIn,WindSpeedMaxMPH,WindSpeedAvgMPH,GustSpeedMaxMPH,PrecipitationSumIn
2012-1-1,52.2,45.9,37.6,46.3,39.6,34.0,89,79,60,30.13,29.70,5,2,17,0.09
2012-1-2,49.2,39.0,29.8,43.6,20.6,13.6,83,48,35,29.87,29.70,9,4,24,0.01
2012-1-3,30.1,26.1,16.9,19.4,7.1,-5.9,65,45,30,30.17,29.84,11,6,25,0.01
2012-1-4,28.2,20.6,12.3,18.8,1.2,-6.7,71,43,26,30.27,30.00,9,4,20,0.00
2012-1-5,39.6,31.6,26.4,24.2,21.7,19.4,86,68,44,30.02,29.88,8,2,21,0.00
2012-1-6,56.6,43.3,26.1,32.5,27.7,20.1,79,56,32,29.99,29.77,6,1,17,0.00
2012-1-7,65.5,49.3,34.1,36.5,31.4,25.4,80,53,30,29.99,29.74,7,2,16,0.00
2012-1-8,49.4,42.0,33.5,29.0,24.4,17.6,69,50,40,30.34,29.99,8,3,17,0.00
2012-1-9,40.3,34.1,29.1,26.6,21.3,16.6,75,60,49,30.34,30.01,3,1,10,0.00
2012-1-10,48.5,38.4,30.3,30.3,27.4,25.1,87,67,42,30.03,29.90,7,2,20,0.00
2012-1-11,47.3,39.2,27.2,43.3,30.8,23.3,90,73,53,30.12,29.78,5,2,15,0.24
2012-1-12,52.6,47.4,44.1,51.2,45.9,42.5,95,94,90,29.79,29.38,9,2,19,0.29
2012-1-13,51.0,38.2,29.7,45.9,26.1,10.3,95,64,39,29.88,29.29,11,5,28,0.02
2012-1-14,34.3,30.0,26.4,15.5,14.2,11.9,61,52,42,30.11,29.88,9,4,23,0.02
2012-1-15,26.3,22.4,17.2,15.0,1.6,-8.2,66,41,26,30.59,30.11,10,4,23,0.00
2012-1-16,40.5,27.2,13.5,27.5,13.0,-1.0,67,55,43,30.63,30.19,5,2,15,0.00
2012-1-17,55.4,44.9,37.5,47.2,40.0,29.0,93,83,65,30.19,29.58,6,2,20,0.14
2012-1-18,55.9,40.2,25.6,48.2,20.2,7.2,77,46,28,30.19,29.59,13,6,32,0.14
2012-1-19,36.5,29.5,19.9,24.8,17.8,8.5,70,61,51,30.25,29.97,4,2,13,0.00
2012-1-20,35.9,31.3,27.6,24.7,11.7,-0.2,70,46,27,30.32,29.97,9,3,18,0.00
2012-1-21,35.9,30.7,27.0,33.8,24.8,7.8,93,80,39,30.29,29.94,7,3,19,0.38
2012-1-22,39.1,31.4,23.8,36.1,25.9,17.3,89,80,71,30.52,30.29,6,3,15,0.10
2012-1-23,52.9,47.9,39.3,50.2,45.7,36.3,95,92,84,30.42,29.91,4,1,14,0.16
2012-1-24,55.7,48.8,38.5,52.2,39.7,30.3,95,72,46,30.16,29.90,6,3,17,0.01
2012-1-25,46.2,40.6,36.5,30.2,28.0,24.2,76,61,48,30.33,30.16,7,2,15,0.01
2012-1-26,42.3,38.3,35.2,37.6,31.7,27.6,84,77,68,30.25,30.07,3,1,7,0.02
2012-1-27,59.8,50.6,41.2,58.1,42.9,28.4,95,76,56,29.94,29.37,10,4,29,0.25
2012-1-28,46.8,41.3,33.5,32.9,28.5,15.9,78,61,35,30.08,29.89,6,2,17,0.25
2012-1-29,45.1,38.3,26.7,24.3,14.4,10.3,64,38,26,30.24,30.05,8,3,17,0.00
2012-1-30,40.1,36.4,30.1,24.3,15.8,9.1,58,44,28,30.34,30.05,8,4,21,0.00
2012-1-31,62.9,49.3,33.7,36.3,29.3,16.1,68,48,27,30.29,30.04,6,2,18,0.00
2012-2-1,65.3,54.2,44.3,43.6,38.0,31.4,78,55,43,30.06,29.89,7,2,27,0.04
2012-2-2,47.4,43.5,38.0,37.8,30.9,21.0,82,61,49,30.25,29.99,9,3,20,0.04
2012-2-3,45.2,36.4,29.7,22.3,19.3,16.2,71,51,32,30.47,30.25,9,3,20,0.00
2012-2-4,44.3,37.4,28.5,26.3,23.9,21.1,76,59,44,30.38,30.10,4,1,7,0.00
2012-2-5,39.5,35.3,27.6,26.6,22.6,18.1,75,60,47,30.20,30.09,6,2,15,0.00
2012-2-6,52.6,38.3,25.1,27.1,22.9,17.7,77,56,32,30.20,30.01,7,2,19,0.00
2012-2-7,52.2,41.3,34.1,28.3,26.6,23.8,73,57,34,30.24,29.99,9,3,16,0.00
2012-2-8,38.8,34.9,31.8,30.9,26.4,18.3,93,72,49,30.32,30.10,4,1,12,0.00
2012-2-9,43.6,35.1,29.5,30.3,24.6,20.2,93,68,40,30.17,30.07,8,3,18,0.08
2012-2-10,47.7,37.4,27.6,35.4,26.5,19.2,85,66,38,30.18,29.93,5,1,13,0.01
2012-2-11,36.6,34.5,32.4,32.9,30.6,25.7,93,86,70,29.93,29.57,8,2,15,0.15
2012-2-12,32.5,27.0,20.0,27.9,11.1,-0.4,86,52,35,30.03,29.66,13,7,30,0.15
2012-2-13,42.9,33.5,25.3,19.9,15.3,12.0,61,48,31,30.09,29.99,8,4,21,0.00
2012-2-14,45.2,39.8,32.7,37.4,26.2,13.2,90,60,28,30.14,30.02,4,1,14,0.06
2012-2-15,45.4,41.5,33.5,42.2,37.4,29.5,94,85,70,30.29,30.06,5,1,10,0.06
2012-2-16,45.2,38.9,29.7,42.2,35.2,27.1,94,87,72,30.31,30.03,2,0,7,0.16
2012-2-17,52.2,44.8,32.1,42.7,34.1,22.0,95,70,37,30.04,29.94,9,3,17,0.17
2012-2-18,48.2,39.6,29.5,36.9,25.5,17.6,86,59,34,30.12,29.89,7,2,16,0.03
2012-2-19,42.5,37.6,31.0,31.6,25.3,19.9,82,62,42,30.10,29.94,6,2,14,0.03
2012-2-20,47.0,37.8,27.9,23.7,17.3,11.4,65,45,26,30.35,29.96,9,4,21,0.00
2012-2-21,46.4,38.4,24.7,38.9,27.8,16.5,84,67,43,30.37,29.88,7,2,20,0.00
2012-2-22,60.1,45.9,34.4,43.0,35.5,24.4,94,71,27,29.87,29.49,6,2,18,0.00
2012-2-23,62.0,52.7,45.5,45.1,36.4,22.3,84,58,22,29.77,29.40,9,3,23,0.00
2012-2-24,47.9,44.3,41.1,46.1,39.6,32.7,94,84,63,29.75,29.31,10,4,23,0.44
2012-2-25,44.1,40.5,35.8,31.5,21.6,15.7,61,47,34,30.06,29.47,14,9,35,0.44
2012-2-26,45.5,36.5,30.9,26.1,14.5,9.4,79,42,27,30.47,30.06,11,4,26,0.00
2012-2-27,53.3,43.2,28.2,37.8,32.2,23.0,88,67,49,30.46,30.12,6,2,17,0.00
2012-2-28,52.2,43.7,35.9,33.5,24.9,19.2,80,49,27,30.39,30.15,10,3,23,0.00
2012-2-29,46.5,41.9,34.0,45.1,38.7,31.3,95,88,73,30.38,29.73,5,2,12,0.68
2012-3-1,48.5,43.1,35.3,43.8,39.8,33.2,95,89,69,29.97,29.64,8,2,18,0.01
2012-3-2,45.7,41.1,35.6,43.2,35.0,31.6,93,79,71,30.13,29.79,5,2,13,0.07
2012-3-3,57.5,51.7,44.5,53.6,39.5,20.2,95,68,28,29.78,29.49,0,0,0,0.34
2012-3-4,46.0,40.8,34.4,27.3,20.2,13.6,59,44,31,29.78,29.59,0,0,0,0.00
2012-3-5,44.5,37.5,31.0,22.7,14.7,1.6,62,41,27,30.39,29.79,8,3,19,0.00
2012-3-6,42.2,33.8,23.6,27.6,14.9,2.1,72,47,24,30.66,30.40,7,3,17,0.00
2012-3-7,65.0,48.7,35.8,44.6,34.3,24.0,79,60,26,30.62,30.35,6,2,18,0.00
2012-3-8,71.5,59.8,52.3,49.5,47.1,43.7,75,64,42,30.35,29.89,8,4,23,0.00
2012-3-9,62.9,47.5,37.6,51.3,28.2,16.3,84,49,29,30.28,29.86,13,5,24,0.04
2012-3-10,41.8,35.3,29.8,22.4,13.0,3.7,70,41,27,30.56,30.28,8,3,20,0.00
2012-3-11,61.6,44.4,29.0,39.1,25.6,16.9,76,52,25,30.57,30.37,5,2,15,0.00
2012-3-12,69.6,52.9,41.2,44.9,36.6,31.0,71,56,25,30.39,30.14,4,2,12,0.00
2012-3-13,75.1,61.2,53.6,56.3,51.7,44.9,93,72,46,30.15,29.94,4,1,15,0.15
2012-3-14,72.3,43.3,49.4,54.4,-5.7,-99.9,87,32,13,30.18,30.00,8,-315,20,0.15
2012-3-15,-200.0,0.0,200.0,-99.9,-99.9,-99.9,0,0,100,30.34,30.18,0,-999,0,0.00
2012-3-16,-200.0,0.0,200.0,-99.9,-99.9,-99.9,0,0,100,30.30,30.13,0,-999,0,0.00
2012-3-17,54.8,18.2,45.8,49.1,-57.0,-99.9,88,23,70,30.39,30.19,5,-647,11,0.00
2012-3-18,57.2,17.3,49.9,46.5,-53.2,-99.9,81,24,66,30.39,30.22,4,-678,11,0.00
2012-3-19,68.9,25.4,55.4,53.4,-42.9,-99.9,82,21,31,30.25,30.18,4,-608,14,0.00
2012-3-20,60.1,19.3,53.5,53.4,-58.4,-99.9,90,23,78,30.34,30.23,4,-659,10,0.00
2012-3-21,60.4,16.8,57.0,56.6,-66.1,-99.9,90,19,82,30.36,30.29,2,-712,7,0.00
2012-3-22,67.6,21.1,58.1,57.5,-56.7,-99.9,86,21,68,30.31,30.10,3,-662,10,0.00
2012-3-23,69.8,25.1,56.3,58.4,-40.3,-99.9,75,26,61,30.10,30.04,7,-599,19,0.00
2012-3-24,57.3,22.2,50.8,42.9,-41.3,-99.9,73,27,54,30.09,29.96,7,-585,15,0.00
2012-3-25,-200.0,0.0,200.0,-99.9,-99.9,-99.9,0,0,100,29.97,29.75,0,-999,0,0.00
2012-4-1,52.0,19.7,44.8,41.7,-43.9,-99.9,83,28,61,29.90,29.58,3,1,13,0.00
2012-4-2,57.6,23.0,43.5,34.0,-43.9,-99.9,69,17,20,29.92,29.60,11,4,26,0.00
2012-4-3,65.5,23.4,47.7,18.4,-53.7,-99.9,26,7,15,29.96,29.72,9,3,25,0.00
2012-4-4,71.6,26.0,61.3,29.3,-51.3,-99.9,25,8,18,29.77,29.50,8,2,19,0.00
2012-4-5,56.5,20.7,48.6,35.3,-48.7,-99.9,58,16,30,29.96,29.78,6,1,20,0.00
2012-4-6,58.0,22.4,44.9,26.7,-49.2,-99.9,42,12,18,30.05,29.89,6,2,18,0.00
2012-4-7,61.5,32.3,46.5,17.4,-32.7,-99.9,30,12,15,30.10,29.95,11,-164,24,0.00
2012-4-8,67.9,26.3,52.3,22.9,-49.7,-99.9,27,8,15,30.04,29.68,10,-575,25,0.00
2012-4-9,64.2,37.2,55.0,24.9,-23.3,-99.9,30,15,20,29.78,29.66,15,-370,34,0.01
2012-4-10,61.2,53.8,46.5,35.5,27.6,20.9,62,38,22,29.82,29.69,9,4,27,0.01
2012-4-11,54.5,47.1,40.1,33.9,29.5,22.5,72,52,30,29.91,29.79,8,4,22,0.00
2012-4-12,58.0,50.5,41.3,35.9,32.2,27.3,74,51,31,30.13,29.90,10,4,21,0.00
2012-4-13,58.9,50.8,41.3,40.8,31.3,24.2,79,49,27,30.22,30.13,4,2,14,0.00
2012-4-14,73.5,59.7,44.2,44.9,31.9,24.4,63,39,17,30.24,30.04,6,2,16,0.00
2012-4-15,80.3,67.8,59.6,55.4,49.7,40.4,69,53,39,30.06,29.96,7,2,19,0.00
2012-4-16,82.6,70.1,60.2,59.9,56.5,52.4,81,63,43,30.06,29.92,4,1,14,0.00
2012-4-17,72.7,69.0,61.0,56.9,53.6,29.9,65,59,29,30.14,29.93,5,2,15,0.00
2012-4-18,62.4,55.6,52.0,43.6,34.7,26.7,73,46,30,30.27,30.14,6,1,13,0.00
2012-4-19,65.3,55.7,49.9,50.5,45.7,42.4,85,70,48,30.15,30.03,4,1,12,0.00
2012-4-20,62.4,54.8,44.6,53.1,48.4,42.4,94,80,60,30.06,29.87,2,0,7,0.01
2012-4-21,70.9,61.2,55.7,58.2,55.5,53.0,93,82,63,29.87,29.68,5,2,15,0.05
2012-4-22,61.5,53.0,49.2,58.2,45.4,-99.9,95,87,76,29.78,29.23,9,3,24,2.10
2012-4-23,58.9,51.0,41.6,44.9,-25.2,-99.9,83,37,63,29.45,29.12,4,2,16,2.17
2012-4-24,60.9,49.3,38.6,44.0,32.4,21.2,84,56,23,29.73,29.45,6,2,18,0.00
2012-4-25,63.7,50.6,36.6,44.9,33.7,24.5,86,56,23,29.91,29.73,6,1,17,0.00
2012-4-26,60.4,50.8,38.3,54.5,46.2,33.0,95,84,67,29.93,29.61,3,0,12,0.00
2012-4-27,58.7,51.8,39.6,57.0,32.1,-99.9,95,51,32,30.16,29.60,11,5,25,0.00
2012-4-28,58.9,46.7,34.3,35.7,26.7,20.9,77,49,25,30.27,30.13,6,2,16,0.00
2012-4-29,65.3,53.5,40.2,36.9,24.3,12.5,76,39,13,30.24,30.07,9,3,20,0.00
2012-4-30,57.3,49.8,35.9,44.5,31.5,16.8,72,51,28,30.36,30.22,4,1,13,0.00
2012-5-1,73.0,59.8,53.6,60.6,53.8,44.4,94,81,57,30.22,29.97,7,1,17,0.42
2012-5-2,55.0,51.5,49.9,50.9,48.2,46.4,93,89,84,30.19,30.09,4,1,12,0.27
2012-5-3,58.3,54.2,51.3,52.9,51.2,48.0,94,90,81,30.21,30.08,4,0,12,0.10
2012-5-4,77.0,61.7,54.2,63.3,6.0,-99.9,95,54,59,30.11,29.85,4,0,12,0.02
2012-5-5,60.2,56.0,54.1,57.9,22.8,-99.9,95,74,89,30.06,29.85,2,1,9,0.03
2012-5-6,59.8,54.3,48.0,51.9,49.4,45.8,92,84,66,30.13,30.03,3,1,10,0.00
2012-5-7,63.5,54.6,45.7,53.4,46.4,-99.9,95,77,54,30.17,30.10,3,1,12,0.00
2012-5-8,68.9,61.5,55.1,57.1,52.3,47.1,81,72,58,30.12,29.84,5,2,20,0.00
2012-5-9,66.0,63.7,59.6,64.0,-4.4,-99.9,95,55,78,29.84,29.56,2,0,12,0.01
2012-5-10,66.0,59.0,48.9,58.2,42.9,-99.9,95,64,31,29.87,29.52,10,3,22,0.00
2012-5-11,70.3,58.6,46.2,40.9,36.1,28.6,75,47,22,30.14,29.87,8,2,20,0.00
2012-5-12,79.9,63.7,46.7,49.4,41.6,36.3,77,48,24,30.25,30.14,4,1,12,0.00
2012-5-13,82.2,69.4,59.3,59.9,51.7,44.4,67,54,33,30.21,30.10,4,1,14,0.00
2012-5-14,72.0,66.4,62.4,59.3,56.9,52.3,84,72,59,30.17,30.11,3,1,13,0.00
2012-5-15,66.6,62.4,60.1,62.7,40.2,-99.9,95,79,81,30.12,29.94,2,1,12,0.51
2012-5-16,78.3,68.9,61.0,66.3,12.7,-99.9,95,53,62,29.94,29.84,2,0,12,0.01
2012-5-17,68.9,62.6,51.9,61.5,46.7,37.7,87,58,34,30.14,29.90,5,1,13,0.01
2012-5-18,66.8,57.3,46.8,53.4,44.7,39.5,93,66,39,30.24,30.13,3,1,11,0.00
2012-5-19,73.0,60.2,48.5,50.5,44.8,38.3,88,60,30,30.18,30.12,3,1,13,0.00
2012-5-20,69.1,60.7,50.5,57.2,50.2,39.0,93,71,37,30.24,30.13,5,2,17,0.00
2012-5-21,61.5,60.0,58.7,57.6,-75.5,-99.9,95,15,93,30.20,29.97,2,1,10,0.94
2012-5-22,69.1,63.4,60.4,63.4,33.4,-99.9,97,75,76,29.97,29.82,3,1,12,0.04
2012-5-23,75.6,67.8,62.4,64.9,62.4,60.6,94,84,66,30.03,29.87,3,0,12,0.04
2012-5-24,68.8,65.5,64.0,65.5,63.3,61.8,95,93,85,30.18,30.03,2,0,10,0.22
2012-5-25,79.0,68.5,63.4,69.2,45.4,-99.9,97,78,39,30.19,30.13,2,0,9,0.02
2012-5-26,85.5,74.6,65.0,69.8,66.4,62.9,95,77,54,30.16,30.07,2,0,10,0.02
2012-5-27,78.8,73.4,69.6,69.0,64.3,55.7,91,74,52,30.17,30.02,2,0,7,0.03
2012-5-28,85.9,76.7,70.8,68.8,66.4,64.2,88,72,53,30.02,29.91,3,1,10,0.03
2012-5-29,91.6,80.6,71.6,71.4,69.0,62.6,86,69,45,29.92,29.72,6,1,21,0.00
2012-5-30,76.1,72.3,66.0,69.4,66.0,63.6,92,81,70,29.80,29.72,2,0,9,0.01
2012-5-31,82.2,72.2,62.4,65.8,50.4,-99.9,95,59,30,29.93,29.70,6,1,14,0.02
2012-6-1,70.4,65.2,58.7,65.8,57.9,51.8,93,78,64,30.00,29.75,4,2,14,0.22
2012-6-2,77.0,68.4,59.8,67.2,32.4,-99.9,97,55,40,29.79,29.65,6,2,21,1.74
2012-6-3,77.9,64.4,56.2,57.1,50.8,47.5,90,64,36,29.79,29.65,10,2,23,0.17
2012-6-4,63.1,58.4,55.0,56.9,52.5,46.6,92,82,58,29.80,29.60,4,1,15,0.39
2012-6-5,66.3,58.8,51.4,53.5,47.5,43.8,90,67,48,29.96,29.79,3,1,13,0.39
2012-6-6,71.1,60.9,49.5,59.2,52.1,47.6,94,74,49,30.01,29.94,2,0,10,0.10
2012-6-7,74.6,64.8,56.5,61.4,55.8,52.4,89,74,49,30.00,29.93,3,1,9,0.04
2012-6-8,84.1,70.0,56.2,58.5,54.2,47.5,91,62,29,29.96,29.84,4,1,13,0.04
2012-6-9,84.0,72.2,61.6,60.7,55.8,53.0,75,58,36,29.98,29.88,3,1,11,0.00
2012-6-10,81.2,72.7,65.6,65.9,63.2,58.7,92,74,52,30.18,29.97,2,0,9,0.02
2012-6-11,72.3,68.6,65.8,63.5,61.3,58.4,89,78,64,30.25,30.15,2,1,11,0.00
2012-6-12,71.8,68.0,65.5,66.2,64.2,61.5,95,88,78,30.18,29.88,3,1,14,0.57
2012-6-13,68.6,66.0,63.7,66.3,15.5,-99.9,95,66,89,30.06,29.83,4,1,15,0.22
2012-6-14,69.8,65.5,59.2,63.5,60.7,56.6,95,85,73,30.26,30.06,3,1,13,0.01
2012-6-15,77.4,66.2,55.0,59.0,53.1,43.5,95,67,35,30.30,30.23,3,1,14,0.01
2012-6-16,76.5,65.7,55.6,58.4,54.5,48.7,92,69,40,30.34,30.24,4,1,11,0.00
2012-6-17,68.4,63.4,56.5,55.9,53.4,51.7,84,70,58,30.24,30.11,2,1,12,0.00
2012-6-18,69.1,63.5,55.9,57.2,54.4,51.5,88,73,59,30.16,30.09,2,0,11,0.00
2012-6-19,78.6,69.0,61.8,65.4,61.2,56.5,86,77,63,30.18,30.08,2,0,11,0.00
2012-6-20,97.8,82.0,68.3,73.8,67.9,61.8,88,65,36,30.10,29.94,3,1,12,0.00
2012-6-21,98.0,86.6,76.7,71.3,67.9,60.7,78,56,31,29.95,29.78,4,1,12,0.00
2012-6-22,93.8,78.3,69.8,73.3,68.7,64.7,93,74,39,29.86,29.76,5,0,14,0.79
2012-6-23,86.7,75.7,67.3,67.7,60.6,51.6,95,64,32,29.98,29.81,5,1,14,0.01
2012-6-24,83.0,72.9,60.7,67.4,59.7,55.0,86,65,41,30.02,29.90,2,0,10,0.01
2012-6-25,79.8,70.5,63.4,69.3,63.4,57.8,93,79,48,29.90,29.65,8,0,21,1.11
2012-6-26,73.7,65.1,55.7,58.0,50.2,46.1,84,60,43,29.80,29.70,8,3,19,1.12
2012-6-27,83.6,71.5,58.7,53.4,49.0,45.3,73,47,28,29.85,29.75,7,2,26,0.00
2012-6-28,92.1,78.4,64.3,61.4,55.8,51.6,69,48,28,29.86,29.73,4,1,14,0.00
2012-6-29,96.8,82.6,70.1,72.5,67.6,59.7,90,62,42,29.76,29.61,4,1,13,0.07
2012-6-30,96.6,83.4,72.8,73.6,66.8,52.5,83,60,26,29.79,29.65,4,1,12,0.08
2012-7-1,97.8,84.0,71.8,68.3,65.4,60.1,82,57,31,29.86,29.74,5,1,15,0.00
2012-7-2,89.3,79.0,67.4,61.8,57.5,51.0,78,50,28,29.93,29.85,5,1,12,0.00
2012-7-3,88.8,77.8,66.3,71.1,61.1,54.8,78,59,34,29.97,29.84,3,0,11,0.00
2012-7-4,93.6,82.3,72.0,73.1,68.1,65.8,87,64,43,29.88,29.73,5,1,22,0.04
2012-7-5,95.1,84.5,75.6,72.8,67.1,59.0,81,59,32,29.85,29.72,5,1,14,0.04
2012-7-6,87.0,79.6,68.4,70.9,67.1,63.6,90,67,48,29.93,29.84,2,0,10,0.00
2012-7-7,98.7,83.9,73.5,71.7,68.9,62.7,92,64,32,29.90,29.77,6,1,22,0.15
2012-7-8,87.8,79.2,72.5,72.5,68.1,61.5,94,71,46,29.87,29.81,3,0,11,0.01
2012-7-9,82.0,77.2,73.3,69.4,60.4,55.8,86,57,41,29.97,29.85,3,1,12,0.01
2012-7-10,84.1,78.0,70.9,66.8,64.3,57.4,84,64,42,30.09,30.02,2,0,11,0.00
2012-7-11,82.8,74.3,65.6,70.5,65.0,62.3,94,74,53,30.19,30.08,2,0,9,0.00
2012-7-12,83.0,74.5,65.0,65.4,62.3,58.4,91,68,47,30.21,30.16,2,0,10,0.00
2012-7-13,89.5,77.5,67.3,67.1,63.5,60.6,83,64,42,30.22,30.15,1,0,6,0.00
2012-7-14,82.6,76.9,71.6,66.7,64.7,61.6,77,66,53,30.22,30.15,3,0,10,0.00
2012-7-15,91.0,80.4,71.6,75.8,71.2,64.5,92,74,54,30.17,29.94,4,1,13,0.93
2012-7-16,91.2,79.8,70.3,71.4,69.6,66.2,94,73,45,29.96,29.79,4,1,13,0.97
2012-7-17,96.3,86.2,70.9,72.4,65.3,58.4,81,52,30,29.87,29.76,3,1,12,0.00
2012-7-18,100.7,84.9,75.1,78.0,71.3,67.1,92,66,35,29.89,29.77,12,1,31,0.04
2012-7-19,75.6,74.1,72.7,72.6,68.3,62.4,94,82,69,29.98,29.86,3,1,15,0.01
2012-7-20,74.4,69.0,64.0,68.1,63.2,56.9,92,82,65,30.04,29.90,5,2,20,0.93
2012-7-21,75.1,69.7,63.2,60.5,58.0,54.6,88,67,54,30.13,30.01,3,1,12,0.93
2012-7-22,79.9,71.0,59.8,64.1,60.8,57.0,94,72,49,30.18,30.12,3,0,10,0.00
2012-7-23,87.6,78.4,68.4,75.1,69.0,61.8,88,73,57,30.14,29.82,3,1,14,0.00
2012-7-24,94.3,83.6,74.2,72.4,66.9,58.6,85,60,36,29.83,29.58,7,2,21,0.00
2012-7-25,85.3,76.1,66.8,64.7,56.2,48.2,76,51,31,29.91,29.72,6,2,14,0.00
2012-7-26,95.1,79.3,68.3,73.1,67.3,58.0,92,69,46,29.84,29.63,12,1,26,0.20
2012-7-27,91.0,79.6,71.3,72.7,70.1,66.8,94,75,46,29.87,29.67,5,1,15,0.01
2012-7-28,87.2,76.7,69.4,75.5,71.6,65.6,93,85,62,29.96,29.85,6,0,12,2.39
2012-7-29,80.3,72.8,69.1,69.7,67.3,65.5,94,83,63,30.05,29.89,2,0,7,2.41
2012-7-30,79.6,73.0,66.4,68.8,65.6,63.9,95,79,62,30.13,30.05,2,0,11,0.00
2012-7-31,79.4,73.6,68.4,67.2,65.8,62.7,91,77,59,30.08,29.91,3,0,11,0.00
2012-8-1,83.6,74.2,68.4,71.6,68.8,64.7,94,84,65,29.95,29.84,2,0,11,0.04
2012-8-2,88.4,78.1,67.9,72.3,67.9,-99.9,95,76,54,29.93,29.85,3,0,10,0.04
2012-8-3,90.7,80.5,74.2,75.4,72.6,69.8,93,78,58,30.11,29.93,2,0,10,0.02
2012-8-4,87.6,79.8,72.0,75.4,73.5,69.9,94,82,62,30.20,30.10,3,0,11,0.02
2012-8-5,92.9,82.1,72.5,76.6,73.7,69.4,93,77,51,30.20,29.98,4,1,20,1.06
2012-8-6,86.3,78.3,73.3,74.1,60.7,-99.9,95,74,56,30.03,29.95,4,0,9,1.61
2012-8-7,82.0,74.9,65.0,69.1,63.4,59.1,85,68,51,30.02,29.97,1,0,6,0.00
2012-8-8,84.5,77.6,72.1,73.2,71.8,69.5,94,83,66,30.00,29.93,1,0,7,0.00
2012-8-9,86.1,78.3,71.5,73.6,71.6,68.2,95,81,57,29.98,29.88,3,0,11,0.00
2012-8-10,81.4,77.1,70.1,75.0,72.6,67.7,95,86,74,29.90,29.76,3,0,11,1.89
2012-8-11,87.2,77.6,73.9,75.4,71.8,68.3,91,83,59,29.93,29.80,3,0,12,0.04
2012-8-12,86.3,77.2,69.9,70.7,66.9,60.8,92,72,44,29.96,29.88,2,0,9,0.04
2012-8-13,86.3,74.5,65.2,63.7,61.2,57.3,85,66,39,30.03,29.94,4,1,12,0.00
2012-8-14,82.8,74.6,66.8,73.1,68.2,62.5,92,81,67,29.98,29.88,2,0,7,0.03
2012-8-15,85.7,75.4,67.9,72.5,70.0,65.5,93,84,63,29.89,29.82,3,0,11,0.39
2012-8-16,85.5,73.4,66.1,66.9,63.0,57.2,97,73,39,29.92,29.86,6,1,13,0.39
2012-8-17,90.1,77.0,64.7,71.2,64.6,58.1,89,67,41,29.91,29.78,2,1,12,0.00
2012-8-18,78.8,70.3,64.7,66.4,62.6,58.9,91,78,54,29.93,29.83,4,1,11,0.16
2012-8-19,77.4,68.5,61.3,61.4,56.5,51.1,89,67,42,29.99,29.92,1,0,6,0.16
2012-8-20,79.4,70.8,63.9,61.8,58.9,52.5,84,67,45,29.94,29.86,1,0,7,0.00
2012-8-21,80.5,71.5,65.0,63.1,61.1,58.2,86,71,48,30.10,29.93,2,0,6,0.00
2012-8-22,81.6,72.5,63.7,67.0,63.9,61.6,94,76,54,30.16,30.09,2,0,10,0.00
2012-8-23,83.8,73.0,63.1,67.7,63.7,60.8,95,75,47,30.17,30.12,2,0,9,0.00
2012-8-24,84.0,73.4,64.7,67.6,65.3,62.6,94,77,55,30.18,30.12,1,0,5,0.00
2012-8-25,80.5,74.1,68.1,70.2,66.7,63.3,92,78,66,30.27,30.18,2,1,10,0.00
2012-8-26,81.2,75.2,71.5,67.1,65.3,61.7,80,71,59,30.32,30.22,3,1,11,0.00
2012-8-27,81.4,75.1,68.8,73.4,70.5,66.1,93,86,74,30.22,29.97,5,0,17,0.70
2012-8-28,87.2,77.5,71.5,72.5,67.7,58.9,93,74,41,29.98,29.81,5,1,13,0.13
2012-8-29,78.8,70.8,65.0,60.1,57.6,52.3,84,64,42,30.02,29.89,4,1,12,0.13
2012-8-30,84.7,71.1,59.8,65.5,58.3,51.9,90,67,34,30.11,30.02,5,1,12,0.00
2012-8-31,92.1,77.8,65.0,70.3,61.8,52.9,94,63,27,30.08,29.92,3,1,13,0.00
2012-9-1,89.9,78.3,73.2,71.0,64.7,53.4,85,65,30,30.05,29.93,5,1,13,0.00
2012-9-2,80.7,76.3,73.3,70.8,69.2,66.9,85,79,67,30.08,30.01,1,0,7,0.00
2012-9-3,76.7,74.5,70.6,72.4,68.4,64.5,93,82,70,30.15,30.06,2,1,12,0.50
2012-9-4,79.4,74.2,69.8,75.3,67.8,-99.9,95,91,81,30.08,29.87,1,0,11,0.65
2012-9-5,85.9,77.0,69.8,74.1,72.8,68.3,95,88,66,29.87,29.77,6,1,11,0.16
2012-9-6,78.5,71.3,64.8,70.2,67.4,63.3,95,88,71,29.92,29.83,1,0,6,0.01
2012-9-7,87.2,76.7,68.6,72.9,66.8,-99.9,95,76,59,29.94,29.84,2,0,13,0.01
2012-9-8,83.4,75.6,64.3,75.0,70.6,61.6,92,85,71,29.88,29.60,6,1,20,0.28
2012-9-9,77.4,67.7,62.9,62.4,60.3,53.8,93,79,54,29.89,29.77,2,0,11,0.30
2012-9-10,73.9,64.6,57.5,55.7,49.1,43.8,84,60,36,30.14,29.88,7,3,17,0.00
2012-9-11,73.5,60.9,50.8,53.4,47.4,41.7,85,63,37,30.30,30.14,4,1,10,0.00
2012-9-12,78.5,65.5,53.8,56.5,53.0,48.0,92,68,36,30.37,30.30,2,0,9,0.00
2012-9-13,77.4,66.1,56.7,59.8,57.4,54.7,95,76,50,30.39,30.28,2,0,9,0.00
2012-9-14,77.9,67.4,56.7,63.0,59.6,55.0,95,78,54,30.29,30.10,2,0,10,0.00
2012-9-15,73.5,65.8,57.0,60.4,52.1,46.6,89,64,40,30.14,30.07,7,2,17,0.00
2012-9-16,74.7,62.9,53.9,53.6,49.5,45.7,84,64,37,30.15,30.04,3,0,10,0.00
2012-9-17,77.7,64.6,51.1,61.8,51.4,47.4,88,65,36,30.13,30.04,3,0,11,0.00
2012-9-18,77.7,73.1,67.8,70.8,67.0,62.0,94,82,76,30.04,29.68,5,2,25,1.06
2012-9-19,70.9,63.7,54.4,66.3,51.5,42.3,95,68,37,30.17,29.75,8,2,22,1.07
2012-9-20,72.8,63.0,54.4,59.8,54.2,46.2,84,73,54,30.19,30.10,2,0,10,0.00
2012-9-21,71.6,63.2,55.4,60.8,56.2,53.4,95,80,58,30.11,29.97,2,0,12,0.00
2012-9-22,77.2,69.0,55.1,66.4,62.7,53.3,95,81,68,29.98,29.81,3,1,15,0.08
2012-9-23,70.3,61.1,53.3,61.1,46.6,38.0,93,62,32,30.12,29.92,6,2,18,0.01
2012-9-24,68.3,56.8,48.8,46.5,43.1,36.1,83,63,32,30.18,30.11,5,1,15,0.01
2012-9-25,74.6,60.6,46.4,54.4,48.2,40.6,83,65,41,30.22,30.13,4,1,14,0.00
2012-9-26,80.9,71.3,64.2,65.4,59.3,53.8,78,67,50,30.16,30.02,3,1,15,0.00
2012-9-27,75.1,67.5,62.7,64.7,62.0,59.2,93,83,61,30.19,30.06,1,0,10,0.10
2012-9-28,79.9,71.1,65.0,67.9,65.5,62.6,93,83,59,30.15,29.92,3,0,14,0.02
2012-9-29,66.4,61.8,56.0,62.8,56.1,51.7,93,82,61,29.95,29.87,3,1,13,0.09
2012-9-30,70.3,60.5,54.2,53.8,50.9,46.8,91,73,45,29.88,29.78,3,1,11,0.01
2012-10-1,72.7,60.5,49.6,51.3,47.6,42.6,91,66,36,29.98,29.85,5,1,16,0.00
2012-10-2,71.5,66.9,60.4,69.1,61.3,51.0,95,83,66,30.02,29.94,2,0,10,0.33
2012-10-3,71.8,69.5,66.8,69.3,67.9,65.6,96,95,91,30.12,29.96,1,0,4,0.33
2012-10-4,75.1,70.3,66.4,70.8,67.9,63.9,96,92,83,30.14,30.03,1,0,6,0.01
2012-10-5,79.9,67.7,59.2,64.0,59.2,51.9,94,77,41,30.08,29.96,3,0,10,0.01
2012-10-6,80.1,66.4,52.0,64.1,56.6,46.1,93,72,48,30.01,29.77,7,2,17,0.01
2012-10-7,52.8,49.6,45.2,49.1,44.9,40.3,92,84,63,30.13,30.01,4,0,15,0.12
2012-10-8,54.2,48.9,42.5,47.8,44.2,40.9,95,84,66,30.29,30.12,3,0,9,0.01
2012-10-9,59.6,57.3,53.5,57.9,53.6,46.8,94,88,69,30.21,30.05,3,2,16,0.53
2012-10-10,68.3,61.4,55.4,60.7,54.3,38.8,95,79,47,30.05,29.82,5,1,15,0.72
2012-10-11,61.0,51.5,45.2,40.7,36.4,30.6,80,58,35,30.23,29.98,7,2,18,0.72
2012-10-12,59.9,49.2,41.8,43.0,36.2,26.6,90,63,39,30.43,30.10,8,2,19,0.00
2012-10-13,54.4,45.9,34.7,42.5,31.9,26.0,76,60,39,30.53,30.32,3,0,10,0.00
2012-10-14,73.7,61.3,50.4,57.1,50.2,42.6,82,68,40,30.32,29.97,5,1,20,0.00
2012-10-15,76.0,67.0,60.4,61.4,58.8,56.9,91,76,52,29.97,29.64,4,1,16,0.03
2012-10-16,60.4,53.7,43.6,57.6,41.6,34.4,92,66,41,29.93,29.67,10,3,21,0.03
2012-10-17,62.1,50.1,39.9,46.5,41.4,37.1,91,74,45,30.03,29.92,3,0,7,0.00
2012-10-18,66.8,56.4,42.1,61.7,50.6,40.2,96,82,60,30.04,29.91,3,1,13,0.01
2012-10-19,68.8,65.3,63.2,65.1,62.5,57.9,94,91,81,29.93,29.66,3,1,15,0.06
2012-10-20,71.3,61.0,51.1,63.5,51.8,41.7,96,75,38,29.86,29.66,4,1,15,0.07
2012-10-21,65.2,54.6,47.3,43.2,40.9,36.8,77,61,36,30.05,29.85,6,2,17,0.00
2012-10-22,67.8,55.6,46.5,46.3,42.0,39.4,78,62,37,30.14,30.03,7,1,19,0.00
2012-10-23,66.1,57.0,46.0,57.0,49.3,42.5,92,77,54,30.13,30.06,2,0,5,0.00
2012-10-24,60.7,59.6,58.1,59.3,56.0,54.3,95,88,83,30.18,30.07,2,1,10,0.00
2012-10-25,62.3,60.1,55.1,56.3,54.7,52.2,92,82,77,30.26,30.19,1,0,7,0.00
2012-10-26,66.3,61.2,56.0,59.5,57.1,53.9,94,87,73,30.23,30.10,1,0,6,0.00
2012-10-27,64.5,61.3,59.6,58.2,52.9,48.8,89,74,66,30.10,29.87,4,1,14,0.00
2012-10-28,59.6,57.9,55.7,53.7,50.2,45.8,92,76,61,29.88,29.59,9,5,27,0.04
2012-10-29,59.5,56.0,52.8,58.1,52.8,48.6,95,89,73,29.59,28.50,35,9,35,1.78
2012-11-11,55.1,52.4,47.6,50.7,49.4,45.4,93,89,83,30.50,30.47,2,0,7,0.00
2012-11-12,66.3,57.1,47.6,58.6,53.7,46.0,96,89,67,30.48,30.20,5,1,15,0.01
2012-11-13,59.3,48.7,38.2,57.0,42.7,28.5,93,80,61,30.44,30.13,8,3,18,0.11
2012-11-14,46.2,40.5,35.5,32.6,29.1,25.1,80,64,51,30.52,30.43,6,2,18,0.00
2012-11-15,44.1,40.4,36.9,33.6,31.2,29.6,80,70,61,30.45,30.30,5,1,14,0.00
2012-11-16,47.7,40.7,35.3,31.6,29.1,26.8,73,64,47,30.43,30.28,5,2,13,0.00
2012-11-17,50.2,41.1,33.8,36.0,31.7,26.2,89,70,56,30.63,30.43,7,2,17,0.00
2012-11-18,49.5,46.2,36.9,41.0,37.9,32.6,86,73,63,30.65,30.53,6,3,15,0.00
2012-11-19,49.2,47.1,44.2,42.5,40.3,37.5,82,77,64,30.53,30.24,7,4,17,0.00
2012-11-20,48.6,44.5,38.3,39.8,36.8,32.8,89,75,56,30.23,30.12,4,1,11,0.00
2012-11-21,51.3,43.7,36.3,38.6,35.4,31.9,87,74,50,30.23,30.13,5,1,14,0.00
2012-11-22,52.6,43.1,36.3,44.3,38.1,32.5,92,83,64,30.27,30.14,4,1,13,0.00
2012-11-23,55.4,44.8,35.3,46.1,40.6,33.5,96,86,67,30.14,29.71,3,1,12,0.03
2012-11-24,47.6,42.0,37.5,44.2,25.2,19.0,90,53,37,29.86,29.69,13,7,27,0.03
2012-11-27,38.8,38.6,38.5,35.9,35.5,34.8,90,88,86,30.21,30.19,4,3,11,0.00
2012-11-28,41.6,36.3,28.4,34.7,26.7,21.0,87,69,44,30.32,30.17,10,3,19,0.00
2012-11-29,45.5,35.5,27.0,25.3,22.9,20.5,81,61,38,30.40,30.30,7,2,15,0.00
2012-11-30,47.6,39.0,29.5,41.6,30.9,23.4,89,73,47,30.41,30.34,3,1,9,0.00
2012-12-1,48.5,45.9,43.3,44.2,42.0,39.1,90,86,81,30.49,30.40,6,3,16,0.00
2012-12-2,53.3,46.8,40.1,47.8,43.2,38.8,96,87,75,30.41,30.13,3,1,12,0.01
2012-12-3,64.2,53.2,43.5,50.2,46.6,41.3,92,79,54,30.27,30.12,6,1,12,0.01
2012-12-4,61.6,52.8,43.2,53.3,49.5,41.1,95,89,72,30.28,30.01,4,1,12,0.00
2012-12-5,58.0,51.1,35.5,51.8,37.6,17.2,94,61,39,30.26,29.92,11,5,25,0.01
2012-12-6,40.8,33.3,28.8,24.0,20.6,16.8,81,60,42,30.38,30.24,8,2,17,0.00
2012-12-7,47.3,40.5,29.0,44.5,36.1,24.0,91,84,76,30.30,30.02,1,0,6,0.20
2012-12-8,53.2,50.4,47.0,50.9,48.4,44.5,96,93,87,30.02,29.89,4,1,11,0.97
2012-12-9,54.1,48.3,44.3,53.0,46.1,39.6,96,92,81,30.24,29.99,1,0,5,0.20
2012-12-10,61.0,56.8,53.1,59.9,55.7,52.0,96,96,96,29.99,29.57,0,0,0,0.45
2012-12-11,59.9,46.7,40.5,58.8,39.1,32.2,96,75,56,30.20,29.58,0,0,0,0.07
2012-12-12,44.2,39.7,34.6,31.8,26.2,21.4,77,59,41,30.44,30.20,4,1,11,0.00
2012-12-13,45.1,37.6,29.7,29.2,26.8,24.1,85,66,46,30.47,30.34,5,1,13,0.00
2012-12-14,50.4,38.4,28.2,29.3,25.6,24.0,86,63,36,30.34,30.17,6,2,15,0.00
2012-12-15,47.4,41.5,31.3,38.8,31.4,25.2,84,67,58,30.33,30.19,4,1,11,0.00
2012-12-16,52.9,50.3,47.6,50.0,46.3,39.0,95,87,72,30.20,29.88,5,1,11,0.18
2012-12-17,51.9,46.8,43.8,50.8,45.4,42.2,96,95,94,29.89,29.61,4,0,12,0.20
2012-12-18,59.0,51.9,42.2,54.0,45.0,32.4,96,78,56,29.66,29.47,12,3,28,0.39
2012-12-19,49.5,43.0,38.8,32.3,27.8,25.8,68,55,41,30.13,29.66,12,6,25,0.00
2012-12-20,51.0,41.1,30.6,44.7,31.7,24.7,81,69,58,30.22,29.77,6,2,15,0.00
2012-12-21,56.6,40.3,39.5,54.6,18.0,-99.9,96,62,56,29.76,29.15,12,-147,28,0.43
2012-12-22,41.5,10.6,39.3,23.1,-68.4,-99.9,50,12,39,29.88,29.38,15,-735,33,0.00
2012-12-23,42.2,10.5,35.5,25.2,-69.2,-99.9,60,12,38,30.00,29.88,6,-739,15,0.00
2012-12-24,-200.0,0.0,200.0,-99.9,-99.9,-99.9,0,0,100,30.10,29.91,0,-999,0,0.00
2012-12-25,43.2,10.9,38.3,35.3,-64.9,-99.9,89,19,65,30.25,29.88,8,-733,19,0.00
2012-12-26,-200.0,0.0,200.0,-99.9,-99.9,-99.9,0,0,100,30.28,29.32,0,-999,0,0.00
2012-12-27,40.3,8.1,36.9,34.8,-72.7,-99.9,89,15,62,29.87,29.21,14,-787,29,0.00
2012-12-28,38.9,12.3,31.2,24.1,-58.2,-99.9,64,19,53,30.10,29.88,9,-656,18,0.00
2012-12-29,41.9,20.1,31.9,38.0,-26.5,-99.9,93,49,78,30.06,29.48,9,-448,20,0.30
2012-12-30,37.6,33.2,29.8,27.3,17.3,9.9,81,53,40,30.23,29.62,16,9,33,0.00
2012-12-31,41.1,34.2,27.6,26.0,19.8,11.6,67,55,47,30.25,29.92,7,2,18,0.00
2013-1-1,42.2,39.1,30.3,28.9,25.3,14.4,68,58,46,30.02,29.84,8,4,20,0.00